Time;durP1;ratioP1;P1;durP2;ratioP2;P2;SDS_P1;SDS_P2;PMS_P1;PMS_P2;Temp;Humidity;BMP_temperature;BMP_pressure;BME280_temperature;BME280_humidity;BME280_pressure;Samples;Min_cycle;Max_cycle;Signal;HPM_P1;HPM_P2
2023/04/17 00:01:36;;;;;;;11.18;8.80;;;7.50;99.90;;;;;;4951931;29;20043;-74
2023/04/17 00:04:03;;;;;;;10.88;8.02;;;7.60;99.90;;;;;;4952350;29;20036;-74
2023/04/17 00:06:28;;;;;;;9.00;7.57;;;7.60;99.90;;;;;;4952362;29;20031;-74
2023/04/17 00:08:54;;;;;;;11.38;7.40;;;7.60;99.90;;;;;;4951462;29;20034;-75
2023/04/17 00:11:20;;;;;;;9.73;8.05;;;7.60;99.90;;;;;;4950877;29;20483;-74
2023/04/17 00:13:46;;;;;;;10.80;8.20;;;7.60;99.90;;;;;;4950282;29;20387;-75
2023/04/17 00:16:12;;;;;;;8.70;7.00;;;7.60;99.90;;;;;;4951797;29;20104;-75
2023/04/17 00:18:39;;;;;;;9.30;7.90;;;7.60;99.90;;;;;;4952491;29;20032;-76
2023/04/17 00:21:05;;;;;;;11.90;8.60;;;7.60;99.90;;;;;;4954411;29;20465;-78
2023/04/17 00:23:30;;;;;;;10.52;7.88;;;7.60;99.90;;;;;;4953401;29;20024;-74
2023/04/17 00:25:56;;;;;;;11.57;8.43;;;7.60;99.90;;;;;;4952611;29;20464;-74
2023/04/17 00:28:22;;;;;;;9.98;7.95;;;7.60;99.90;;;;;;4952034;29;20027;-74
2023/04/17 00:30:48;;;;;;;10.25;7.60;;;7.70;99.90;;;;;;4951737;29;20024;-74
2023/04/17 00:33:14;;;;;;;10.68;8.18;;;7.70;99.90;;;;;;4949968;29;20027;-74
2023/04/17 00:35:40;;;;;;;9.82;8.02;;;7.60;99.90;;;;;;4950502;29;20519;-75
2023/04/17 00:38:08;;;;;;;9.75;7.55;;;7.70;99.90;;;;;;4952055;29;20039;-74
2023/04/17 00:40:34;;;;;;;11.48;8.40;;;7.70;99.90;;;;;;4951319;29;20030;-75
2023/04/17 00:43:03;;;;;;;12.32;8.48;;;7.60;99.90;;;;;;4951238;29;20024;-75
2023/04/17 00:45:29;;;;;;;;;;;7.60;99.90;;;;;;4953542;29;20035;-75
2023/04/17 00:47:57;;;;;;;9.95;8.00;;;7.70;99.90;;;;;;4951880;29;19974;-75
2023/04/17 00:50:23;;;;;;;12.73;8.57;;;7.60;99.90;;;;;;4951213;29;20027;-75
2023/04/17 00:52:50;;;;;;;10.00;7.93;;;7.60;99.90;;;;;;4950324;29;20028;-75
2023/04/17 00:55:16;;;;;;;12.00;7.68;;;7.60;99.90;;;;;;4952441;29;20114;-74
2023/04/17 00:57:43;;;;;;;11.10;7.80;;;7.60;99.90;;;;;;4935630;29;20039;-76
2023/04/17 01:00:10;;;;;;;11.43;8.10;;;7.60;99.90;;;;;;4949962;29;20098;-75
2023/04/17 01:02:36;;;;;;;10.93;7.78;;;7.60;99.90;;;;;;4952963;29;20028;-76
2023/04/17 01:05:02;;;;;;;9.43;7.43;;;7.60;99.90;;;;;;4952088;29;20110;-74
2023/04/17 01:07:29;;;;;;;11.40;7.47;;;7.70;99.90;;;;;;4952615;29;20411;-75
2023/04/17 01:09:55;;;;;;;8.93;7.43;;;7.70;99.90;;;;;;4952672;29;20130;-75
2023/04/17 01:12:23;;;;;;;11.13;6.97;;;7.70;99.90;;;;;;4950075;29;20031;-75
2023/04/17 01:14:58;;;;;;;13.30;7.03;;;7.80;99.90;;;;;;4949908;29;20079;-74
2023/04/17 01:17:27;;;;;;;9.50;6.97;;;7.80;99.90;;;;;;4948611;29;20032;-75
2023/04/17 01:19:54;;;;;;;12.02;7.05;;;7.80;99.90;;;;;;4949999;29;20495;-75
2023/04/17 01:22:20;;;;;;;10.45;6.82;;;7.80;99.90;;;;;;4951018;29;20038;-75
2023/04/17 01:24:47;;;;;;;7.97;6.20;;;7.80;99.90;;;;;;4949049;29;20028;-75
2023/04/17 01:27:13;;;;;;;9.50;6.72;;;7.80;99.90;;;;;;4949588;29;20074;-75
2023/04/17 01:29:40;;;;;;;8.38;6.13;;;7.80;99.90;;;;;;4950855;29;20028;-75
2023/04/17 01:32:06;;;;;;;9.48;6.25;;;7.80;99.90;;;;;;4948697;29;20130;-75
2023/04/17 01:34:31;;;;;;;7.38;6.03;;;7.80;99.90;;;;;;4949669;29;20043;-76
2023/04/17 01:36:58;;;;;;;7.35;6.05;;;;;;;;;;4949644;29;20115;-74
2023/04/17 01:39:23;;;;;;;10.57;6.45;;;7.80;99.90;;;;;;4948938;29;20040;-75
2023/04/17 01:41:50;;;;;;;7.72;6.18;;;7.90;99.90;;;;;;4950021;29;20035;-75
2023/04/17 01:44:16;;;;;;;6.97;6.28;;;7.80;99.90;;;;;;4950073;29;20020;-75
2023/04/17 01:46:42;;;;;;;8.80;6.88;;;7.80;99.90;;;;;;4950943;29;20060;-76
2023/04/17 01:49:07;;;;;;;9.30;6.07;;;7.80;99.90;;;;;;4950498;29;20028;-75
2023/04/17 01:51:33;;;;;;;8.43;6.45;;;7.80;99.90;;;;;;4949246;29;20036;-75
2023/04/17 01:53:59;;;;;;;6.57;5.88;;;7.80;99.90;;;;;;4948763;29;20115;-75
2023/04/17 01:56:25;;;;;;;8.23;6.63;;;7.80;99.90;;;;;;4949780;29;20034;-75
2023/04/17 01:58:51;;;;;;;8.52;6.60;;;7.80;99.90;;;;;;4933651;29;20464;-75
2023/04/17 02:01:17;;;;;;;9.15;7.53;;;7.80;99.90;;;;;;4949131;29;20044;-75
2023/04/17 02:03:42;;;;;;;10.85;6.68;;;7.80;99.90;;;;;;4949391;29;20074;-75
2023/04/17 02:06:08;;;;;;;8.25;7.00;;;7.80;99.90;;;;;;4948522;29;20036;-75
2023/04/17 02:08:34;;;;;;;10.02;7.13;;;7.90;99.90;;;;;;4948283;29;20027;-74
2023/04/17 02:11:00;;;;;;;9.05;6.65;;;7.80;99.90;;;;;;4948309;29;20032;-74
2023/04/17 02:13:25;;;;;;;9.10;7.47;;;7.80;99.90;;;;;;4947900;29;20048;-74
2023/04/17 02:15:51;;;;;;;10.85;8.20;;;7.80;99.90;;;;;;4948500;29;20032;-75
2023/04/17 02:18:17;;;;;;;11.75;7.90;;;7.90;99.90;;;;;;4948351;29;20055;-75
2023/04/17 02:20:42;;;;;;;9.70;7.45;;;7.80;99.90;;;;;;4950346;29;20456;-76
2023/04/17 02:23:08;;;;;;;9.95;6.97;;;7.80;99.90;;;;;;4951313;29;20051;-76
2023/04/17 02:25:34;;;;;;;9.85;7.95;;;7.80;99.90;;;;;;4950220;29;20034;-76
2023/04/17 02:28:00;;;;;;;9.27;7.63;;;7.80;99.90;;;;;;4951469;29;20136;-75
2023/04/17 02:30:26;;;;;;;10.27;7.63;;;7.70;99.90;;;;;;4950928;29;20032;-75
2023/04/17 02:32:53;;;;;;;9.93;7.35;;;7.70;99.90;;;;;;4949961;29;20035;-75
2023/04/17 02:35:20;;;;;;;9.88;7.18;;;7.70;99.90;;;;;;4950763;29;20049;-75
2023/04/17 02:37:46;;;;;;;9.55;7.38;;;7.70;99.90;;;;;;4949644;29;20063;-75
2023/04/17 02:40:12;;;;;;;9.02;7.50;;;7.70;99.90;;;;;;4948681;29;20118;-75
2023/04/17 02:42:37;;;;;;;8.90;6.55;;;7.70;99.90;;;;;;4950354;29;20036;-75
2023/04/17 02:45:04;;;;;;;12.65;7.60;;;7.70;99.90;;;;;;4949082;29;20452;-75
2023/04/17 02:47:29;;;;;;;8.63;6.68;;;7.70;99.90;;;;;;4948408;29;20038;-75
2023/04/17 02:49:55;;;;;;;7.90;6.38;;;7.70;99.90;;;;;;4932724;29;20067;-75
2023/04/17 02:52:24;;;;;;;8.57;6.70;;;7.70;99.90;;;;;;4949671;29;20103;-75
2023/04/17 02:54:49;;;;;;;11.35;6.70;;;7.70;99.90;;;;;;4948184;29;20031;-75
2023/04/17 02:57:15;;;;;;;8.32;6.15;;;7.70;99.90;;;;;;4948940;29;20035;-74
2023/04/17 02:59:41;;;;;;;7.25;6.13;;;7.70;99.90;;;;;;4948115;29;20425;-74
2023/04/17 03:02:06;;;;;;;8.05;6.22;;;7.80;99.90;;;;;;4948692;29;20024;-75
2023/04/17 03:04:33;;;;;;;7.68;6.63;;;7.70;99.90;;;;;;4948279;29;20028;-75
2023/04/17 03:06:59;;;;;;;7.65;5.63;;;7.70;99.90;;;;;;4948124;29;20027;-75
2023/04/17 03:09:26;;;;;;;6.22;5.50;;;7.70;99.90;;;;;;4948400;29;20452;-75
2023/04/17 03:11:51;;;;;;;6.95;5.70;;;7.70;99.90;;;;;;4948519;29;20118;-75
2023/04/17 03:14:17;;;;;;;7.40;6.40;;;7.70;99.90;;;;;;4948100;29;20038;-75
2023/04/17 03:16:43;;;;;;;8.85;6.15;;;7.70;99.90;;;;;;4948947;29;20059;-74
2023/04/17 03:19:08;;;;;;;6.85;5.68;;;7.80;99.90;;;;;;4946604;29;20095;-74
2023/04/17 03:21:35;;;;;;;6.07;5.00;;;7.80;99.90;;;;;;4946631;29;20036;-75
2023/04/17 03:24:01;;;;;;;8.30;5.88;;;7.80;99.90;;;;;;4950785;29;20031;-74
2023/04/17 03:26:26;;;;;;;7.82;5.88;;;7.80;99.90;;;;;;4952205;29;20031;-75
2023/04/17 03:28:52;;;;;;;7.80;5.90;;;7.80;99.90;;;;;;4950987;29;20035;-75
2023/04/17 03:31:17;;;;;;;7.85;6.15;;;7.80;99.90;;;;;;4952765;29;20100;-74
2023/04/17 03:33:43;;;;;;;8.00;5.55;;;7.80;99.90;;;;;;4950652;29;20123;-74
2023/04/17 03:36:09;;;;;;;6.80;6.10;;;7.80;99.90;;;;;;4951316;29;20090;-74
2023/04/17 03:38:37;;;;;;;7.30;5.32;;;7.80;99.90;;;;;;4950801;29;20032;-75
2023/04/17 03:41:02;;;;;;;7.15;6.05;;;7.80;99.90;;;;;;4950273;29;20040;-75
2023/04/17 03:43:28;;;;;;;6.35;5.40;;;7.80;99.90;;;;;;4952335;29;20051;-75
2023/04/17 03:45:54;;;;;;;6.57;5.72;;;7.80;99.90;;;;;;4951471;29;20036;-75
2023/04/17 03:48:19;;;;;;;6.53;5.82;;;7.80;99.90;;;;;;4951530;29;20028;-75
2023/04/17 03:50:45;;;;;;;8.60;5.82;;;7.70;99.90;;;;;;4951465;29;20054;-75
2023/04/17 03:53:11;;;;;;;8.88;6.18;;;7.70;99.90;;;;;;4949635;29;20032;-75
2023/04/17 03:55:36;;;;;;;6.60;5.90;;;7.70;99.90;;;;;;4951068;29;20032;-75
2023/04/17 03:58:02;;;;;;;8.50;6.55;;;7.60;99.90;;;;;;4951237;29;20125;-75
2023/04/17 04:00:27;;;;;;;8.93;7.05;;;7.60;99.90;;;;;;4949691;29;20040;-74
2023/04/17 04:02:53;;;;;;;8.10;6.50;;;7.70;99.90;;;;;;4950464;29;20023;-74
2023/04/17 04:05:19;;;;;;;10.10;7.32;;;7.60;99.90;;;;;;4949629;29;20035;-75
2023/04/17 04:07:44;;;;;;;8.75;6.55;;;7.60;99.90;;;;;;4948443;29;20028;-75
2023/04/17 04:10:10;;;;;;;8.93;6.75;;;7.60;99.90;;;;;;4933355;29;20027;-75
2023/04/17 04:12:36;;;;;;;8.60;6.63;;;7.60;99.90;;;;;;4947617;29;20051;-78
2023/04/17 04:15:01;;;;;;;8.40;7.25;;;7.60;99.90;;;;;;4949181;29;20157;-76
2023/04/17 04:17:27;;;;;;;8.88;6.97;;;7.60;99.90;;;;;;4948021;29;20043;-74
2023/04/17 04:19:53;;;;;;;9.23;7.55;;;7.60;99.90;;;;;;4948576;29;20059;-75
2023/04/17 04:22:20;;;;;;;10.48;7.60;;;7.60;99.90;;;;;;4934789;29;20464;-76
2023/04/17 04:24:46;;;;;;;10.27;8.55;;;7.60;99.90;;;;;;4952593;29;20031;-75
2023/04/17 04:27:11;;;;;;;11.10;8.20;;;7.60;99.90;;;;;;4951438;29;20047;-75
2023/04/17 04:29:37;;;;;;;11.02;8.10;;;7.50;99.90;;;;;;4948291;29;20024;-74
2023/04/17 04:32:04;;;;;;;11.75;8.63;;;7.50;99.90;;;;;;4949346;29;20460;-76
2023/04/17 04:34:29;;;;;;;9.88;7.63;;;7.50;99.90;;;;;;4947878;29;20031;-76
2023/04/17 04:36:55;;;;;;;10.88;8.07;;;7.50;99.90;;;;;;4949739;29;20083;-75
2023/04/17 04:39:21;;;;;;;11.00;8.52;;;7.50;99.90;;;;;;4949111;29;20122;-74
2023/04/17 04:41:50;;;;;;;10.57;8.82;;;7.50;99.90;;;;;;4949007;29;20024;-76
2023/04/17 04:44:16;;;;;;;;;;;7.50;99.90;;;;;;4949329;29;20032;-74
2023/04/17 04:46:42;;;;;;;11.07;8.25;;;7.40;99.90;;;;;;4930350;29;19995;-74
2023/04/17 04:49:08;;;;;;;12.38;8.73;;;7.40;99.90;;;;;;4949094;29;20031;-74
2023/04/17 04:51:34;;;;;;;13.52;8.63;;;7.40;99.90;;;;;;4948497;29;20039;-73
2023/04/17 04:54:00;;;;;;;11.05;8.25;;;7.50;99.90;;;;;;4947510;29;20028;-71
2023/04/17 04:56:27;;;;;;;11.95;8.60;;;7.50;99.90;;;;;;4947732;29;20035;-72
2023/04/17 04:59:21;;;;;;;12.57;9.93;;;7.50;99.90;;;;;;4946531;29;20095;-72
2023/04/17 05:01:46;;;;;;;11.15;8.55;;;7.60;99.90;;;;;;4948012;29;20056;-72
2023/04/17 05:04:12;;;;;;;11.38;8.07;;;7.60;99.90;;;;;;4948840;29;20042;-74
2023/04/17 05:06:38;;;;;;;11.55;7.97;;;7.80;99.90;;;;;;4947166;29;20024;-75
2023/04/17 05:09:03;;;;;;;10.63;7.82;;;7.70;99.90;;;;;;4931726;29;20035;-75
2023/04/17 05:11:29;;;;;;;11.35;8.10;;;7.70;99.90;;;;;;4948574;29;20452;-73
2023/04/17 05:13:54;;;;;;;13.15;8.48;;;7.80;99.90;;;;;;4948010;29;20027;-73
2023/04/17 05:16:20;;;;;;;9.88;7.53;;;7.80;99.90;;;;;;4946975;29;20054;-74
2023/04/17 05:18:46;;;;;;;11.63;7.60;;;7.80;99.90;;;;;;4947639;29;20046;-72
2023/04/17 05:21:12;;;;;;;9.75;7.82;;;7.90;99.90;;;;;;4945373;29;20408;-72
2023/04/17 05:23:38;;;;;;;10.43;7.20;;;8.00;99.90;;;;;;4949421;29;20101;-75
2023/04/17 05:26:04;;;;;;;9.82;7.80;;;8.10;99.90;;;;;;4947386;29;20031;-71
2023/04/17 05:28:30;;;;;;;8.48;7.45;;;8.10;99.90;;;;;;4945747;29;20036;-74
2023/04/17 05:30:56;;;;;;;11.15;8.05;;;8.20;99.90;;;;;;4945745;29;20032;-74
2023/04/17 05:33:22;;;;;;;10.70;7.38;;;8.20;99.90;;;;;;4944727;29;20115;-73
2023/04/17 05:35:48;;;;;;;9.50;7.40;;;8.30;99.90;;;;;;4948053;29;20066;-76
2023/04/17 05:38:13;;;;;;;11.60;8.07;;;8.40;99.90;;;;;;4945862;29;20028;-76
2023/04/17 05:40:39;;;;;;;10.02;8.13;;;8.40;99.90;;;;;;4945006;29;20095;-76
2023/04/17 05:43:09;;;;;;;11.40;8.60;;;8.50;99.90;;;;;;4948663;29;20169;-76
2023/04/17 05:45:35;;;;;;;10.80;7.78;;;8.50;99.90;;;;;;4947715;29;20063;-77
2023/04/17 05:48:00;;;;;;;10.98;8.05;;;8.60;99.90;;;;;;4948308;29;20475;-77
2023/04/17 05:50:26;;;;;;;9.50;8.20;;;8.70;99.90;;;;;;4949115;29;20051;-79
2023/04/17 05:52:52;;;;;;;10.73;7.85;;;8.70;99.90;;;;;;4954950;29;20087;-78
2023/04/17 05:55:19;;;;;;;9.45;7.72;;;8.70;99.90;;;;;;4953693;29;20027;-79
2023/04/17 05:57:44;;;;;;;11.98;7.95;;;8.80;99.90;;;;;;4951303;29;20031;-78
2023/04/17 06:00:12;;;;;;;10.50;7.28;;;8.80;99.90;;;;;;4949427;29;20111;-78
2023/04/17 06:02:39;;;;;;;10.13;7.65;;;8.80;99.90;;;;;;4948796;29;20027;-79
2023/04/17 06:05:06;;;;;;;8.63;7.18;;;8.90;99.90;;;;;;4947638;29;20028;-79
2023/04/17 06:07:37;;;;;;;9.18;7.38;;;8.90;99.90;;;;;;4949315;29;20087;-79
2023/04/17 06:10:04;;;;;;;10.55;7.45;;;9.00;99.90;;;;;;4948283;29;20424;-78
2023/04/17 06:12:30;;;;;;;11.77;7.22;;;9.00;99.90;;;;;;4948322;29;20043;-79
2023/04/17 06:14:56;;;;;;;8.63;7.25;;;9.00;99.90;;;;;;4947763;29;20028;-79
2023/04/17 06:17:22;;;;;;;12.73;7.90;;;9.00;99.90;;;;;;4947371;29;20432;-79
2023/04/17 06:19:48;;;;;;;12.65;7.72;;;9.00;99.90;;;;;;4942963;29;20032;-79
2023/04/17 06:22:13;;;;;;;9.57;7.22;;;9.10;99.90;;;;;;4945232;29;20054;-79
2023/04/17 06:24:39;;;;;;;8.95;7.03;;;9.10;99.90;;;;;;4947788;29;20032;-79
2023/04/17 06:27:05;;;;;;;8.55;6.90;;;9.10;99.90;;;;;;4930037;29;20035;-79
2023/04/17 06:29:30;;;;;;;15.60;7.80;;;9.20;99.90;;;;;;4948370;29;20465;-79
2023/04/17 06:31:56;;;;;;;10.35;7.80;;;9.20;99.90;;;;;;4946658;29;20059;-79
2023/04/17 06:34:22;;;;;;;9.32;7.07;;;9.30;99.90;;;;;;4946691;29;20036;-79
2023/04/17 06:36:47;;;;;;;12.27;7.28;;;9.40;99.90;;;;;;4930775;29;20083;-79
2023/04/17 06:39:13;;;;;;;12.68;7.10;;;9.50;99.90;;;;;;4931578;29;20055;-79
2023/04/17 06:41:39;;;;;;;9.52;6.80;;;9.70;99.90;;;;;;4948345;29;20028;-79
2023/04/17 06:44:05;;;;;;;9.48;6.30;;;9.80;99.90;;;;;;4930583;29;20036;-79
2023/04/17 06:46:30;;;;;;;10.45;6.57;;;10.00;99.90;;;;;;4946456;29;20119;-80
2023/04/17 06:48:58;;;;;;;8.00;6.32;;;10.40;99.90;;;;;;4942793;29;20023;-80
2023/04/17 06:51:26;;;;;;;6.80;5.82;;;10.90;99.90;;;;;;4937800;29;20019;-80
2023/04/17 06:53:52;;;;;;;8.40;5.55;;;11.40;99.90;;;;;;4935174;29;20518;-79
2023/04/17 06:56:18;;;;;;;6.88;5.50;;;11.90;99.90;;;;;;4936454;29;20034;-79
2023/04/17 06:58:44;;;;;;;6.30;5.70;;;12.10;99.90;;;;;;4937931;29;20396;-79
2023/04/17 07:01:11;;;;;;;6.78;5.28;;;12.50;99.90;;;;;;4940325;29;20088;-79
2023/04/17 07:03:41;;;;;;;6.72;5.47;;;12.70;99.90;;;;;;4940217;29;20039;-80
2023/04/17 07:06:07;;;;;;;8.10;5.82;;;13.00;99.90;;;;;;4940584;29;20058;-79
2023/04/17 07:08:33;;;;;;;6.10;5.50;;;13.00;99.90;;;;;;4923170;29;20035;-79
2023/04/17 07:11:00;;;;;;;7.03;5.13;;;13.20;99.90;;;;;;4938854;29;20030;-79
2023/04/17 07:13:30;;;;;;;11.13;5.43;;;13.10;99.90;;;;;;4940073;29;20032;-79
2023/04/17 07:15:56;;;;;;;7.03;5.80;;;13.30;99.90;;;;;;4938622;29;20032;-79
2023/04/17 07:18:24;;;;;;;6.72;5.47;;;13.00;99.90;;;;;;4938399;29;20047;-79
2023/04/17 07:20:50;;;;;;;6.88;6.05;;;12.90;99.90;;;;;;4938721;29;20027;-80
2023/04/17 07:23:15;;;;;;;5.85;5.18;;;12.70;99.90;;;;;;4938666;29;20031;-79
2023/04/17 07:25:41;;;;;;;7.45;5.63;;;12.70;99.90;;;;;;4939827;29;20523;-79
2023/04/17 07:28:07;;;;;;;11.27;5.80;;;12.70;99.90;;;;;;4922690;29;20424;-79
2023/04/17 07:30:33;;;;;;;7.57;5.60;;;12.80;99.90;;;;;;4938859;29;20074;-79
2023/04/17 07:32:59;;;;;;;6.72;5.40;;;12.80;99.90;;;;;;4939981;29;20023;-79
2023/04/17 07:35:25;;;;;;;6.93;5.45;;;12.70;99.90;;;;;;4923150;29;20032;-79
2023/04/17 07:37:50;;;;;;;7.22;5.72;;;12.50;99.90;;;;;;4939621;29;20090;-79
2023/04/17 07:40:16;;;;;;;8.10;6.07;;;12.50;99.90;;;;;;4939297;29;20070;-79
2023/04/17 07:42:42;;;;;;;8.65;5.78;;;12.50;99.90;;;;;;4939419;29;20062;-79
2023/04/17 07:45:09;;;;;;;8.57;5.80;;;12.70;99.90;;;;;;4938295;29;20063;-79
2023/04/17 07:47:34;;;;;;;8.43;5.93;;;12.70;99.90;;;;;;4938269;29;20103;-79
2023/04/17 07:50:00;;;;;;;10.10;5.50;;;12.80;99.90;;;;;;4922402;29;20115;-79
2023/04/17 07:52:26;;;;;;;7.90;5.70;;;12.80;99.90;;;;;;4939046;29;20106;-79
2023/04/17 07:54:51;;;;;;;7.65;5.57;;;12.80;99.90;;;;;;4939457;29;20035;-79
2023/04/17 07:57:17;;;;;;;8.18;6.25;;;12.70;99.90;;;;;;4937957;29;20062;-79
2023/04/17 07:59:43;;;;;;;5.82;5.32;;;12.70;99.90;;;;;;4927619;29;20055;-80
2023/04/17 08:02:09;;;;;;;7.70;5.82;;;12.70;99.90;;;;;;4919048;29;20123;-79
2023/04/17 08:04:36;;;;;;;6.10;5.50;;;12.90;99.90;;;;;;4938928;29;20024;-79
2023/04/17 08:07:02;;;;;;;6.82;5.75;;;13.00;99.90;;;;;;4922496;29;20036;-79
2023/04/17 08:09:27;;;;;;;6.93;5.57;;;13.20;99.90;;;;;;4921666;29;20055;-79
2023/04/17 08:11:53;;;;;;;6.43;5.45;;;13.30;99.90;;;;;;4939247;29;20106;-79
2023/04/17 08:14:19;;;;;;;7.07;5.40;;;13.30;99.90;;;;;;4938938;29;20020;-79
2023/04/17 08:16:49;;;;;;;7.03;6.05;;;13.60;99.90;;;;;;4921885;29;20400;-79
2023/04/17 08:19:14;;;;;;;6.55;5.68;;;13.80;99.90;;;;;;4921709;29;20027;-79
2023/04/17 08:21:40;;;;;;;6.88;6.18;;;14.00;99.90;;;;;;4938932;29;20024;-79
2023/04/17 08:24:06;;;;;;;7.10;5.82;;;13.70;99.90;;;;;;4938759;29;20036;-79
2023/04/17 08:26:32;;;;;;;7.30;5.70;;;13.60;99.90;;;;;;4921971;29;20179;-79
2023/04/17 08:29:00;;;;;;;7.60;5.90;;;13.50;99.90;;;;;;4938548;29;20110;-79
2023/04/17 08:31:27;;;;;;;7.43;6.60;;;13.50;99.90;;;;;;4923880;29;20032;-79
2023/04/17 08:33:54;;;;;;;7.07;6.22;;;13.60;99.90;;;;;;4938456;29;20035;-79
2023/04/17 08:36:19;;;;;;;6.95;5.78;;;14.00;99.90;;;;;;4938835;29;20063;-79
2023/04/17 08:38:46;;;;;;;7.00;5.32;;;14.20;99.90;;;;;;4921485;29;20062;-79
2023/04/17 08:41:19;;;;;;;8.40;5.97;;;14.20;99.90;;;;;;4921390;29;20062;-79
2023/04/17 08:43:49;;;;;;;10.38;5.63;;;14.30;99.90;;;;;;4921144;29;20039;-66
2023/04/17 08:46:15;;;;;;;9.93;5.90;;;14.00;99.90;;;;;;4938588;29;20027;-63
2023/04/17 08:48:41;;;;;;;6.43;5.78;;;14.20;99.90;;;;;;4938270;29;20452;-63
2023/04/17 08:51:07;;;;;;;11.20;5.97;;;14.40;99.90;;;;;;4938517;29;20031;-63
2023/04/17 08:53:33;;;;;;;8.50;6.15;;;14.70;99.90;;;;;;4938138;29;20031;-63
2023/04/17 08:56:03;;;;;;;8.13;5.47;;;14.80;99.90;;;;;;4938065;29;20032;-63
2023/04/17 08:58:33;;;;;;;6.90;5.70;;;15.10;99.90;;;;;;4937664;29;20392;-63
2023/04/17 09:01:09;;;;;;;6.90;5.97;;;15.30;99.90;;;;;;4937333;29;20138;-63
2023/04/17 09:03:43;;;;;;;8.85;5.72;;;15.20;99.90;;;;;;4937576;29;20458;-63
2023/04/17 09:06:10;;;;;;;7.53;5.65;;;15.10;99.90;;;;;;4937858;29;20032;-63
2023/04/17 09:08:37;;;;;;;10.88;6.35;;;14.80;99.90;;;;;;4937896;29;20024;-63
2023/04/17 09:11:02;;;;;;;8.07;5.93;;;14.90;99.90;;;;;;4938026;29;20090;-63
2023/04/17 09:13:29;;;;;;;10.65;6.07;;;15.00;99.90;;;;;;4938070;29;20035;-63
2023/04/17 09:16:08;;;;;;;7.18;5.55;;;15.20;99.90;;;;;;4920676;29;20043;-63
2023/04/17 09:18:36;;;;;;;5.90;5.20;;;15.50;99.90;;;;;;4937784;29;20431;-63
2023/04/17 09:21:03;;;;;;;7.18;5.53;;;15.70;99.90;;;;;;4937025;29;20024;-63
2023/04/17 09:23:30;;;;;;;6.35;5.78;;;16.00;99.90;;;;;;4937307;29;20091;-63
2023/04/17 09:26:07;;;;;;;9.18;6.85;;;15.90;99.90;;;;;;4937981;29;20073;-63
2023/04/17 09:28:38;;;;;;;8.32;7.13;;;15.50;99.90;;;;;;4920766;29;20377;-79
2023/04/17 09:31:05;;;;;;;6.90;6.10;;;14.80;99.90;;;;;;4937735;29;20372;-78
2023/04/17 09:33:31;;;;;;;11.15;6.35;;;14.60;99.90;;;;;;4920749;29;20039;-77
2023/04/17 09:36:20;;;;;;;8.52;5.72;;;14.80;99.90;;;;;;4920257;29;20044;-78
2023/04/17 09:38:46;;;;;;;8.40;5.90;;;15.10;99.90;;;;;;4920633;29;20469;-78
2023/04/17 09:41:38;;;;;;;8.18;6.20;;;15.20;99.90;;;;;;4937668;29;20078;-78
2023/04/17 09:44:05;;;;;;;9.43;6.25;;;15.60;99.90;;;;;;4920837;29;20028;-78
2023/04/17 09:46:41;;;;;;;7.75;6.18;;;15.90;99.90;;;;;;4937485;29;20036;-79
2023/04/17 09:49:22;;;;;;;7.40;6.10;;;16.20;99.90;;;;;;4937262;29;20023;-78
2023/04/17 09:51:49;;;;;;;7.97;6.00;;;16.80;99.90;;;;;;4937116;29;20028;-78
2023/04/17 09:54:16;;;;;;;6.72;6.00;;;17.30;98.70;;;;;;4937077;29;20028;-78
2023/04/17 09:56:42;;;;;;;6.90;5.90;;;17.50;97.30;;;;;;4920272;29;20036;-78
2023/04/17 09:59:08;;;;;;;6.57;5.90;;;17.10;97.10;;;;;;4937131;29;20058;-78
2023/04/17 10:01:36;;;;;;;7.45;6.35;;;17.00;97.10;;;;;;4936831;29;20048;-78
2023/04/17 10:04:03;;;;;;;8.15;6.22;;;17.00;97.90;;;;;;4936922;29;20024;-79
2023/04/17 10:06:33;;;;;;;7.63;6.03;;;17.30;97.20;;;;;;4937032;29;20036;-79
2023/04/17 10:08:59;;;;;;;7.15;6.45;;;17.80;96.00;;;;;;4919893;29;20032;-79
2023/04/17 10:11:29;;;;;;;6.53;5.80;;;17.70;95.40;;;;;;4936871;29;20114;-79
2023/04/17 10:14:18;;;;;;;7.75;6.10;;;17.60;96.10;;;;;;4920012;29;20106;-79
2023/04/17 10:16:45;;;;;;;;;;;17.30;96.10;;;;;;4910830;29;20047;-79
2023/04/17 10:19:32;;;;;;;8.05;6.53;;;17.40;96.30;;;;;;4936789;29;20009;-79
2023/04/17 10:22:18;;;;;;;6.72;5.75;;;17.60;95.90;;;;;;4935606;29;20028;-79
2023/04/17 10:24:48;;;;;;;7.13;6.40;;;17.70;96.00;;;;;;4936756;29;20024;-79
2023/04/17 10:27:28;;;;;;;7.47;6.47;;;17.70;95.60;;;;;;4936742;29;20031;-79
2023/04/17 10:30:02;;;;;;;7.60;6.60;;;17.70;94.90;;;;;;4919514;29;20031;-79
2023/04/17 10:32:29;;;;;;;7.32;6.63;;;17.50;95.40;;;;;;4936738;29;20399;-79
2023/04/17 10:34:57;;;;;;;8.00;6.63;;;17.50;95.20;;;;;;4936789;29;20098;-79
2023/04/17 10:37:51;;;;;;;6.93;6.32;;;17.60;95.70;;;;;;4936534;29;20040;-79
2023/04/17 10:40:22;;;;;;;6.70;5.70;;;17.70;95.20;;;;;;4919522;29;20027;-79
2023/04/17 10:43:06;;;;;;;7.47;6.00;;;18.30;94.50;;;;;;4936794;29;20028;-79
2023/04/17 10:45:53;;;;;;;6.82;6.07;;;18.40;94.60;;;;;;4936618;29;20035;-80
2023/04/17 10:48:20;;;;;;;9.73;7.05;;;18.60;93.20;;;;;;4936513;29;20062;-80
2023/04/17 10:50:46;;;;;;;7.18;6.10;;;18.70;92.30;;;;;;4935380;29;20033;-80
2023/04/17 10:53:39;;;;;;;7.07;6.38;;;18.70;92.80;;;;;;4936460;29;20030;-80
2023/04/17 10:56:05;;;;;;;6.82;6.22;;;18.90;91.80;;;;;;4914734;29;20081;-80
2023/04/17 10:58:31;;;;;;;8.10;6.38;;;19.30;91.40;;;;;;4936430;29;20035;-80
2023/04/17 11:01:02;;;;;;;7.50;6.72;;;19.60;91.10;;;;;;4936114;29;20044;-80
2023/04/17 11:03:29;;;;;;;9.07;6.40;;;19.40;90.10;;;;;;4936607;29;20031;-80
2023/04/17 11:05:58;;;;;;;7.57;6.10;;;19.40;90.50;;;;;;4936472;29;20035;-80
2023/04/17 11:08:23;;;;;;;6.30;5.70;;;19.60;89.80;;;;;;4919296;29;20066;-81
2023/04/17 11:10:53;;;;;;;5.70;5.20;;;19.30;90.20;;;;;;4936410;29;20064;-81
2023/04/17 11:13:18;;;;;;;6.50;5.80;;;19.60;90.40;;;;;;4936374;29;20056;-80
2023/04/17 11:15:44;;;;;;;6.65;5.13;;;20.10;87.40;;;;;;4936104;29;20066;-80
2023/04/17 11:18:11;;;;;;;7.00;5.90;;;20.10;86.60;;;;;;4935955;29;20043;-80
2023/04/17 11:20:37;;;;;;;6.47;5.72;;;19.90;85.80;;;;;;4936017;29;20046;-80
2023/04/17 11:23:05;;;;;;;6.03;5.43;;;20.10;85.60;;;;;;4919352;29;20464;-80
2023/04/17 11:25:32;;;;;;;8.60;5.28;;;20.50;83.20;;;;;;4935984;29;20102;-80
2023/04/17 11:28:00;;;;;;;9.13;5.13;;;21.20;83.00;;;;;;4936306;29;20032;-80
2023/04/17 11:30:43;;;;;;;6.60;5.90;;;22.00;79.60;;;;;;4913396;29;20471;-79
2023/04/17 11:33:10;;;;;;;5.82;5.18;;;22.30;76.40;;;;;;4925605;29;20035;-79
2023/04/17 11:35:37;;;;;;;5.20;4.65;;;22.30;73.50;;;;;;4925205;29;20039;-79
2023/04/17 11:38:21;;;;;;;6.00;4.55;;;22.10;74.80;;;;;;4925422;29;20090;-76
2023/04/17 11:40:54;;;;;;;5.78;5.25;;;22.70;73.30;;;;;;4924642;29;20078;-78
2023/04/17 11:43:21;;;;;;;5.15;4.75;;;23.20;68.90;;;;;;4908590;29;20868;-77
2023/04/17 11:45:50;;;;;;;6.10;5.45;;;22.60;69.60;;;;;;4931367;29;20035;-79
2023/04/17 11:48:19;;;;;;;7.70;5.00;;;21.70;71.00;;;;;;4939697;29;20416;-79
2023/04/17 11:50:45;;;;;;;7.10;5.65;;;21.50;73.60;;;;;;4939671;29;20059;-79
2023/04/17 11:53:16;;;;;;;6.40;5.80;;;21.80;70.30;;;;;;4923129;29;20063;-79
2023/04/17 11:55:43;;;;;;;5.93;5.43;;;21.30;70.90;;;;;;4939229;29;20030;-79
2023/04/17 11:58:10;;;;;;;6.32;5.72;;;21.20;72.50;;;;;;4939192;29;20087;-79
2023/04/17 12:00:37;;;;;;;5.90;5.30;;;21.70;71.00;;;;;;4939445;29;20043;-78
2023/04/17 12:03:35;;;;;;;6.80;5.68;;;21.40;71.40;;;;;;4939136;29;20032;-79
2023/04/17 12:06:02;;;;;;;6.70;5.27;;;21.70;69.80;;;;;;4922266;29;20024;-80
2023/04/17 12:08:28;;;;;;;5.20;4.72;;;21.80;70.20;;;;;;4939437;29;20059;-79
2023/04/17 12:10:56;;;;;;;5.20;4.80;;;22.30;69.40;;;;;;4939195;29;20091;-80
2023/04/17 12:13:23;;;;;;;6.20;5.60;;;23.10;68.40;;;;;;4922092;29;20059;-78
2023/04/17 12:15:49;;;;;;;6.18;5.13;;;23.90;63.50;;;;;;4938928;29;20086;-78
2023/04/17 12:18:15;;;;;;;6.97;5.22;;;23.40;63.50;;;;;;4922326;29;20134;-79
2023/04/17 12:20:41;;;;;;;5.88;5.28;;;23.40;63.80;;;;;;4939239;29;20031;-78
2023/04/17 12:23:07;;;;;;;5.53;5.00;;;23.30;63.20;;;;;;4921880;29;20388;-78
2023/04/17 12:25:33;;;;;;;5.50;5.00;;;22.30;65.20;;;;;;4938844;29;20039;-79
2023/04/17 12:28:03;;;;;;;7.25;5.78;;;21.60;66.90;;;;;;4939169;29;20152;-78
2023/04/17 12:30:29;;;;;;;5.45;4.75;;;21.60;67.90;;;;;;4938755;29;20039;-78
2023/04/17 12:32:55;;;;;;;8.15;4.95;;;22.00;67.90;;;;;;4938713;29;20031;-79
2023/04/17 12:35:22;;;;;;;6.18;5.57;;;22.50;66.10;;;;;;4938625;29;20087;-78
2023/04/17 12:37:50;;;;;;;6.68;5.65;;;22.20;65.60;;;;;;4921478;29;20461;-79
2023/04/17 12:40:17;;;;;;;6.03;5.40;;;21.60;66.80;;;;;;4922078;29;20372;-79
2023/04/17 12:42:43;;;;;;;6.35;5.38;;;21.60;67.80;;;;;;4921602;29;20110;-78
2023/04/17 12:45:09;;;;;;;5.60;5.10;;;21.70;67.80;;;;;;4938502;29;20461;-80
2023/04/17 12:47:35;;;;;;;5.72;5.22;;;21.30;68.20;;;;;;4938685;29;20027;-82
2023/04/17 12:50:01;;;;;;;8.77;5.80;;;20.20;71.10;;;;;;4938352;29;20083;-81
2023/04/17 12:52:26;;;;;;;6.13;5.30;;;19.30;73.60;;;;;;4938018;29;20063;-81